createdAt,value
2024-05-09T00:00:39.870Z,79.42
2024-05-09T00:03:08.574Z,78.86
2024-05-09T00:05:36.908Z,79.42
2024-05-09T00:08:04.743Z,79.38
2024-05-09T00:10:36.564Z,79.21
2024-05-09T00:13:06.385Z,78.95
2024-05-09T00:15:34.097Z,78.90
2024-05-09T00:18:01.833Z,78.98
2024-05-09T00:20:36.969Z,79.14
2024-05-09T00:23:07.564Z,78.97
2024-05-09T00:25:37.803Z,78.88
2024-05-09T00:28:07.836Z,79.10
2024-05-09T00:30:36.717Z,79.09
2024-05-09T00:33:09.612Z,79.11
2024-05-09T00:35:37.670Z,78.78
2024-05-09T00:38:05.099Z,78.51
2024-05-09T00:40:43.261Z,78.79
2024-05-09T00:43:12.262Z,78.89
2024-05-09T00:45:39.949Z,78.90
2024-05-09T00:48:09.282Z,78.78
2024-05-09T00:50:39.761Z,78.54
2024-05-09T00:53:10.055Z,79.19
2024-05-09T00:55:38.618Z,79.60
2024-05-09T00:58:06.086Z,79.46
2024-05-09T01:00:38.885Z,79.52
2024-05-09T01:03:09.243Z,79.61
2024-05-09T01:05:39.194Z,79.95
2024-05-09T01:08:07.171Z,79.74
2024-05-09T01:10:35.539Z,79.69
2024-05-09T01:13:07.586Z,79.91
2024-05-09T01:15:37.479Z,79.72
2024-05-09T01:18:08.001Z,80.06
2024-05-09T01:20:41.436Z,80.35
2024-05-09T01:23:11.435Z,80.01
2024-05-09T01:25:38.538Z,79.95
2024-05-09T01:28:06.125Z,80.29
2024-05-09T01:30:37.444Z,80.01
2024-05-09T01:33:09.844Z,80.09
2024-05-09T01:35:40.889Z,80.24
2024-05-09T01:38:08.610Z,79.92
2024-05-09T01:40:38.845Z,80.08
2024-05-09T01:43:09.251Z,80.14
2024-05-09T01:45:37.096Z,79.85
2024-05-09T01:48:07.437Z,79.87
2024-05-09T01:50:39.496Z,80.28
2024-05-09T01:53:10.465Z,80.33
2024-05-09T01:55:37.322Z,80.16
2024-05-09T01:58:04.199Z,79.91
2024-05-09T02:00:38.718Z,80.15
2024-05-09T02:03:09.061Z,80.37
2024-05-09T02:05:36.507Z,80.18
2024-05-09T02:08:03.677Z,80.17
2024-05-09T02:10:32.867Z,79.83
2024-05-09T02:13:00.210Z,79.93
2024-05-09T02:15:26.922Z,80.38
2024-05-09T02:17:54.028Z,80.37
2024-05-09T02:20:30.151Z,80.41
2024-05-09T02:23:04.132Z,80.30
2024-05-09T02:25:31.389Z,80.53
2024-05-09T02:27:58.129Z,80.74
2024-05-09T02:30:34.907Z,80.12
2024-05-09T02:33:06.489Z,80.55
2024-05-09T02:35:33.705Z,80.29
2024-05-09T02:38:00.606Z,80.23
2024-05-09T02:40:35.731Z,81.00
2024-05-09T02:43:05.682Z,80.26
2024-05-09T02:45:32.929Z,81.00
2024-05-09T02:48:00.197Z,80.41
2024-05-09T02:50:34.447Z,80.93
2024-05-09T02:53:06.053Z,81.29
2024-05-09T02:55:33.176Z,80.72
2024-05-09T02:58:00.080Z,81.00
2024-05-09T03:00:35.144Z,81.01
2024-05-09T03:03:08.541Z,80.86
2024-05-09T03:05:36.960Z,80.89
2024-05-09T03:08:05.372Z,80.76
2024-05-09T03:10:36.256Z,80.63
2024-05-09T03:13:12.937Z,81.08
2024-05-09T03:15:41.116Z,80.62
2024-05-09T03:18:09.531Z,80.53
2024-05-09T03:20:37.229Z,80.45
2024-05-09T03:23:05.582Z,80.77
2024-05-09T03:25:32.826Z,81.27
2024-05-09T03:27:59.743Z,80.53
2024-05-09T03:30:38.490Z,80.65
2024-05-09T03:33:18.684Z,80.91
2024-05-09T03:35:49.866Z,80.75
2024-05-09T03:38:17.297Z,80.83
2024-05-09T03:40:45.935Z,80.99
2024-05-09T03:43:13.738Z,80.81
2024-05-09T03:45:40.563Z,80.93
2024-05-09T03:48:07.951Z,80.72
2024-05-09T03:50:36.300Z,81.20
2024-05-09T03:53:03.979Z,80.99
2024-05-09T03:55:31.165Z,80.86
2024-05-09T03:57:58.127Z,80.68
2024-05-09T04:00:31.571Z,80.78
2024-05-09T04:03:06.974Z,80.68
2024-05-09T04:05:37.142Z,80.94
2024-05-09T04:08:04.005Z,81.22
2024-05-09T04:10:33.935Z,81.48
2024-05-09T04:13:02.298Z,81.49
2024-05-09T04:15:29.174Z,81.07
2024-05-09T04:17:56.298Z,81.52
2024-05-09T04:20:33.882Z,81.39
2024-05-09T04:23:06.525Z,81.17
2024-05-09T04:25:33.790Z,80.96
2024-05-09T04:28:00.501Z,81.38
2024-05-09T04:30:36.325Z,81.04
2024-05-09T04:33:07.668Z,81.11
2024-05-09T04:35:36.160Z,81.21
2024-05-09T04:38:05.250Z,81.17
2024-05-09T04:40:35.458Z,81.55
2024-05-09T04:43:14.180Z,81.31
2024-05-09T04:45:41.135Z,81.32
2024-05-09T04:48:08.394Z,81.75
2024-05-09T04:50:38.302Z,81.67
2024-05-09T04:53:09.395Z,81.49
2024-05-09T04:55:37.615Z,81.64
2024-05-09T04:58:05.800Z,81.92
2024-05-09T05:00:37.181Z,82.09
2024-05-09T05:03:07.554Z,81.46
2024-05-09T05:05:38.122Z,81.28
2024-05-09T05:08:05.600Z,81.60
2024-05-09T05:10:36.255Z,81.96
2024-05-09T05:13:17.183Z,81.92
2024-05-09T05:16:03.482Z,81.29
2024-05-09T05:18:30.300Z,81.66
2024-05-09T05:20:57.425Z,81.27
2024-05-09T05:23:25.006Z,81.85
2024-05-09T05:25:53.590Z,81.78
2024-05-09T05:28:21.676Z,81.73
2024-05-09T05:30:48.449Z,81.28
2024-05-09T05:33:18.281Z,81.68
2024-05-09T05:35:45.520Z,82.18
2024-05-09T05:38:12.650Z,82.10
2024-05-09T05:40:40.538Z,81.90
2024-05-09T05:43:09.993Z,81.82
2024-05-09T05:45:37.054Z,82.76
2024-05-09T05:48:06.071Z,83.11
2024-05-09T05:50:37.968Z,82.64
2024-05-09T05:53:07.928Z,83.34
2024-05-09T05:55:44.467Z,83.73
2024-05-09T05:58:12.343Z,83.99
2024-05-09T06:00:41.098Z,84.14
2024-05-09T06:03:10.143Z,84.55
2024-05-09T06:05:40.342Z,84.40
2024-05-09T06:08:08.049Z,84.60
2024-05-09T06:10:39.012Z,84.48
2024-05-09T06:13:08.959Z,83.92
2024-05-09T06:15:35.717Z,84.21
2024-05-09T06:18:06.233Z,84.28
2024-05-09T06:20:37.864Z,84.13
2024-05-09T06:23:06.483Z,84.39
2024-05-09T06:25:34.017Z,84.14
2024-05-09T06:28:01.691Z,84.25
2024-05-09T06:30:37.018Z,84.31
2024-05-09T06:33:07.875Z,83.95
2024-05-09T06:35:35.426Z,84.17
2024-05-09T06:38:02.596Z,84.01
2024-05-09T06:40:37.127Z,84.16
2024-05-09T06:43:14.512Z,84.02
2024-05-09T06:45:41.934Z,83.99
2024-05-09T06:48:09.666Z,83.68
2024-05-09T06:50:38.548Z,83.71
2024-05-09T06:53:07.161Z,84.05
2024-05-09T06:55:34.058Z,83.43
2024-05-09T06:58:00.987Z,83.91
2024-05-09T07:00:35.542Z,83.94
2024-05-09T07:03:11.212Z,83.23
2024-05-09T07:05:39.145Z,83.24
2024-05-09T07:08:06.995Z,82.98
2024-05-09T07:10:36.535Z,82.93
2024-05-09T07:13:08.837Z,83.13
2024-05-09T07:15:35.833Z,82.95
2024-05-09T07:18:09.474Z,82.92
2024-05-09T07:20:36.612Z,82.63
2024-05-09T07:23:03.612Z,82.63
2024-05-09T07:25:30.678Z,82.16
2024-05-09T07:27:57.593Z,82.03
2024-05-09T07:30:32.611Z,81.26
2024-05-09T07:33:01.636Z,81.06
2024-05-09T07:35:29.453Z,81.18
2024-05-09T07:37:56.487Z,80.66
2024-05-09T07:40:32.552Z,80.46
2024-05-09T07:43:08.359Z,80.93
2024-05-09T07:52:32.569Z,80.56
2024-05-09T07:53:39.658Z,80.00
2024-05-09T07:56:11.875Z,79.98
2024-05-09T07:58:39.376Z,79.84
2024-05-09T08:01:06.602Z,79.24
2024-05-09T08:03:33.970Z,78.95
2024-05-09T08:06:01.042Z,78.78
2024-05-09T08:08:28.043Z,78.86
2024-05-09T08:10:55.033Z,78.32
2024-05-09T08:13:21.894Z,78.76
2024-05-09T08:15:48.877Z,79.02
2024-05-09T08:18:15.984Z,79.05
2024-05-09T08:20:42.855Z,78.14
2024-05-09T08:23:11.204Z,78.02
2024-05-09T08:25:38.772Z,78.42
2024-05-09T08:28:05.801Z,78.39
2024-05-09T08:30:36.947Z,77.58
2024-05-09T08:33:08.305Z,77.30
2024-05-09T08:38:04.920Z,76.99
2024-05-09T08:40:35.755Z,77.10
2024-05-09T08:43:09.802Z,77.38
2024-05-09T08:45:39.058Z,77.12
2024-05-09T08:48:08.731Z,76.24
2024-05-09T08:50:40.484Z,76.29
2024-05-09T08:53:08.656Z,75.93
2024-05-09T08:55:40.277Z,75.79
2024-05-09T08:58:12.757Z,75.95
2024-05-09T09:00:41.987Z,75.12
2024-05-09T09:03:11.555Z,74.27
2024-05-09T09:05:40.895Z,73.33
2024-05-09T09:08:08.886Z,72.40
2024-05-09T09:10:38.168Z,72.99
2024-05-09T09:13:09.896Z,72.29
2024-05-09T09:18:28.021Z,71.81
2024-05-09T09:20:55.096Z,72.18
2024-05-09T09:23:22.256Z,68.53
2024-05-09T09:25:49.077Z,66.85
2024-05-09T09:28:16.180Z,67.36
2024-05-09T09:30:43.327Z,68.08
2024-05-09T09:33:10.472Z,68.53
2024-05-09T09:35:40.083Z,68.10
2024-05-09T09:38:08.098Z,68.47
2024-05-09T09:40:46.689Z,66.89
2024-05-09T09:43:20.917Z,66.86
2024-05-09T09:45:52.642Z,66.10
2024-05-09T09:48:22.415Z,65.39
2024-05-09T09:50:51.777Z,65.43
2024-05-09T09:53:22.813Z,66.06
2024-05-09T09:55:51.274Z,65.04
2024-05-09T09:58:18.274Z,65.32
2024-05-09T10:00:45.949Z,64.94
2024-05-09T10:03:13.230Z,64.99
2024-05-09T10:05:43.086Z,65.01
2024-05-09T10:08:13.099Z,65.41
2024-05-09T10:10:48.841Z,65.91
2024-05-09T10:13:16.190Z,64.40
2024-05-09T10:15:54.471Z,65.56
2024-05-09T10:18:27.886Z,64.61
2024-05-09T10:20:57.069Z,63.15
2024-05-09T10:23:30.709Z,63.66
2024-05-09T10:25:59.122Z,63.04
2024-05-09T10:28:30.143Z,63.33
2024-05-09T10:31:10.168Z,62.65
2024-05-09T10:33:49.084Z,62.43
2024-05-09T10:36:21.150Z,61.06
2024-05-09T10:38:53.203Z,62.25
2024-05-09T10:41:21.514Z,62.56
2024-05-09T10:43:49.017Z,62.37
2024-05-09T10:46:19.639Z,61.34
2024-05-09T10:48:50.787Z,61.11
2024-05-09T10:51:21.636Z,60.17
2024-05-09T10:53:48.323Z,61.19
2024-05-09T10:56:15.748Z,58.10
2024-05-09T10:58:42.484Z,58.47
2024-05-09T11:01:10.268Z,58.11
2024-05-09T11:03:38.782Z,57.69
2024-05-09T11:06:06.649Z,58.71
2024-05-09T11:08:34.878Z,58.05
2024-05-09T11:11:05.885Z,57.95
2024-05-09T11:13:34.998Z,57.83
2024-05-09T11:16:02.696Z,56.28
2024-05-09T11:18:35.102Z,56.89
2024-05-09T11:21:12.686Z,57.20
2024-05-09T11:23:40.194Z,57.87
2024-05-09T11:26:07.075Z,56.65
2024-05-09T11:28:33.819Z,56.76
2024-05-09T11:31:08.745Z,56.51
2024-05-09T11:33:41.554Z,56.62
2024-05-09T11:36:09.595Z,55.22
2024-05-09T11:38:36.616Z,54.19
2024-05-09T11:41:04.743Z,54.42
2024-05-09T11:43:32.443Z,53.60
2024-05-09T11:45:59.496Z,54.68
2024-05-09T11:48:26.658Z,54.14
2024-05-09T11:50:54.611Z,54.18
2024-05-09T11:53:21.362Z,53.50
2024-05-09T11:55:48.186Z,53.05
2024-05-09T11:58:17.891Z,54.30
2024-05-09T12:00:45.814Z,53.62
2024-05-09T12:03:13.047Z,52.92
2024-05-09T12:05:39.962Z,52.51
2024-05-09T12:08:07.286Z,52.17
2024-05-09T12:10:36.016Z,53.21
2024-05-09T12:13:05.810Z,53.11
2024-05-09T12:15:37.144Z,52.33
2024-05-09T12:18:08.453Z,52.51
2024-05-09T12:20:39.385Z,53.52
2024-05-09T12:23:09.290Z,51.52
2024-05-09T12:25:37.496Z,51.39
2024-05-09T12:28:04.782Z,51.75
2024-05-09T12:30:37.515Z,50.26
2024-05-09T12:33:12.210Z,51.54
2024-05-09T12:35:40.421Z,52.55
2024-05-09T12:38:07.408Z,50.84
2024-05-09T12:40:38.953Z,50.09
2024-05-09T12:43:07.792Z,50.93
2024-05-09T12:45:35.839Z,49.34
2024-05-09T12:48:07.579Z,49.75
2024-05-09T12:50:39.043Z,50.81
2024-05-09T12:53:05.977Z,51.43
2024-05-09T12:55:43.910Z,51.51
2024-05-09T12:58:19.169Z,48.38
2024-05-09T13:00:46.938Z,48.88
2024-05-09T13:03:14.801Z,51.14
2024-05-09T13:05:44.806Z,46.24
2024-05-09T13:08:12.760Z,49.13
2024-05-09T13:10:39.750Z,47.54
2024-05-09T13:13:06.734Z,46.69
2024-05-09T13:15:40.068Z,48.76
2024-05-09T13:18:07.733Z,46.26
2024-05-09T13:20:36.655Z,47.70
2024-05-09T13:23:08.482Z,46.12
2024-05-09T13:25:36.708Z,48.76
2024-05-09T13:28:07.533Z,49.93
2024-05-09T13:30:40.900Z,49.62
2024-05-09T13:33:13.251Z,48.86
2024-05-09T13:35:48.535Z,49.51
2024-05-09T13:38:19.076Z,47.79
2024-05-09T13:40:46.544Z,48.65
2024-05-09T13:43:14.156Z,49.76
2024-05-09T13:45:41.379Z,49.27
2024-05-09T13:48:10.385Z,48.46
2024-05-09T13:50:37.609Z,48.65
2024-05-09T13:53:06.852Z,49.42
2024-05-09T13:55:38.239Z,50.00
2024-05-09T13:58:05.423Z,50.21
2024-05-09T14:00:42.874Z,49.20
2024-05-09T14:03:16.108Z,49.47
2024-05-09T14:05:43.691Z,50.68
2024-05-09T14:08:11.547Z,51.27
2024-05-09T14:10:44.300Z,51.02
2024-05-09T14:13:11.865Z,51.34
2024-05-09T14:15:38.780Z,51.41
2024-05-09T14:18:07.973Z,50.94
2024-05-09T14:20:36.125Z,51.56
2024-05-09T14:23:03.031Z,51.22
2024-05-09T14:25:31.910Z,51.57
2024-05-09T14:27:58.924Z,52.56
2024-05-09T14:30:34.279Z,50.75
2024-05-09T14:33:05.853Z,51.21
2024-05-09T14:35:35.802Z,51.14
2024-05-09T14:38:03.605Z,50.47
2024-05-09T14:40:40.494Z,51.15
2024-05-09T14:43:14.867Z,51.27
2024-05-09T14:45:43.484Z,51.40
2024-05-09T14:48:11.619Z,50.67
2024-05-09T14:50:40.295Z,51.16
2024-05-09T14:53:09.940Z,50.47
2024-05-09T14:55:38.880Z,50.37
2024-05-09T14:58:07.390Z,50.31
2024-05-09T15:00:41.665Z,49.23
2024-05-09T15:03:11.731Z,49.63
2024-05-09T15:05:38.824Z,50.11
2024-05-09T15:08:07.259Z,48.42
2024-05-09T15:10:36.334Z,48.03
2024-05-09T15:13:09.787Z,48.32
2024-05-09T15:15:38.294Z,47.23
2024-05-09T15:18:05.855Z,46.38
2024-05-09T15:20:36.552Z,46.11
2024-05-09T15:23:06.217Z,45.20
2024-05-09T15:25:34.652Z,43.39
2024-05-09T15:28:01.659Z,44.67
2024-05-09T15:30:32.339Z,41.00
2024-05-09T15:33:06.831Z,44.21
2024-05-09T15:35:41.189Z,42.13
2024-05-09T15:38:09.411Z,45.58
2024-05-09T15:40:39.887Z,44.16
2024-05-09T15:43:09.611Z,42.77
2024-05-09T15:45:38.094Z,43.46
2024-05-09T15:48:08.236Z,44.41
2024-05-09T15:50:39.419Z,44.19
2024-05-09T15:53:10.088Z,43.63
2024-05-09T15:55:37.820Z,44.30
2024-05-09T15:58:07.522Z,46.26
2024-05-09T16:00:41.176Z,45.97
2024-05-09T16:03:11.845Z,45.75
2024-05-09T16:05:40.758Z,44.32
2024-05-09T16:08:08.127Z,46.02
2024-05-09T16:10:44.479Z,45.01
2024-05-09T16:13:12.700Z,44.91
2024-05-09T16:15:39.727Z,44.06
2024-05-09T16:18:07.114Z,44.03
2024-05-09T16:20:39.302Z,43.92
2024-05-09T16:23:09.011Z,43.80
2024-05-09T16:25:36.321Z,44.49
2024-05-09T16:28:10.012Z,46.23
2024-05-09T16:30:40.919Z,44.35
2024-05-09T16:33:08.589Z,44.44
2024-05-09T16:35:38.664Z,43.99
2024-05-09T16:38:08.703Z,44.89
2024-05-09T16:40:39.793Z,45.42
2024-05-09T16:43:09.267Z,47.79
2024-05-09T16:45:36.839Z,46.22
2024-05-09T16:48:04.181Z,46.33
2024-05-09T16:50:34.225Z,46.21
2024-05-09T16:53:04.385Z,47.30
2024-05-09T16:55:31.660Z,46.21
2024-05-09T16:57:58.662Z,47.88
2024-05-09T17:00:35.611Z,47.32
2024-05-09T17:03:09.891Z,46.87
2024-05-09T17:05:37.589Z,45.54
2024-05-09T17:08:07.983Z,46.22
2024-05-09T17:10:36.358Z,47.45
2024-05-09T17:13:05.121Z,48.22
2024-05-09T17:15:33.809Z,49.34
2024-05-09T17:18:01.639Z,49.70
2024-05-09T17:20:33.300Z,48.93
2024-05-09T17:23:03.862Z,50.58
2024-05-09T17:25:30.766Z,51.48
2024-05-09T17:27:59.649Z,51.14
2024-05-09T17:30:32.445Z,51.35
2024-05-09T17:33:07.213Z,51.94
2024-05-09T17:35:35.572Z,52.19
2024-05-09T17:38:02.410Z,53.02
2024-05-09T17:40:33.773Z,52.71
2024-05-09T17:43:04.107Z,53.11
2024-05-09T17:45:31.771Z,52.24
2024-05-09T17:47:59.460Z,52.29
2024-05-09T17:50:31.948Z,52.55
2024-05-09T17:53:03.046Z,52.69
2024-05-09T17:55:30.401Z,53.18
2024-05-09T17:57:57.492Z,53.58
2024-05-09T18:00:33.739Z,53.20
2024-05-09T18:03:06.352Z,53.74
2024-05-09T18:05:35.567Z,53.97
2024-05-09T18:08:03.239Z,55.11
2024-05-09T18:10:36.020Z,54.97
2024-05-09T18:13:06.329Z,55.84
2024-05-09T18:15:33.811Z,55.94
2024-05-09T18:18:02.484Z,56.13
2024-05-09T18:20:38.144Z,56.59
2024-05-09T18:23:10.798Z,57.07
2024-05-09T18:25:37.692Z,57.15
2024-05-09T18:28:05.027Z,57.25
2024-05-09T18:30:35.170Z,57.73
2024-05-09T18:33:05.981Z,57.74
2024-05-09T18:35:34.143Z,58.44
2024-05-09T18:38:01.004Z,58.39
2024-05-09T18:40:33.408Z,57.70
2024-05-09T18:43:05.668Z,58.29
2024-05-09T18:45:33.795Z,58.27
2024-05-09T18:48:00.920Z,58.59
2024-05-09T18:50:34.484Z,58.56
2024-05-09T18:53:08.816Z,59.10
2024-05-09T18:55:35.873Z,59.65
2024-05-09T18:58:04.563Z,60.08
2024-05-09T19:00:36.091Z,59.46
2024-05-09T19:03:11.080Z,60.41
2024-05-09T19:05:40.815Z,60.41
2024-05-09T19:08:08.540Z,60.02
2024-05-09T19:10:38.467Z,60.51
2024-05-09T19:13:10.179Z,60.91
2024-05-09T19:15:39.908Z,61.23
2024-05-09T19:18:07.654Z,61.33
2024-05-09T19:20:36.334Z,60.90
2024-05-09T19:23:04.923Z,61.32
2024-05-09T19:25:32.593Z,61.55
2024-05-09T19:28:00.530Z,61.80
2024-05-09T19:30:36.682Z,62.27
2024-05-09T19:33:07.941Z,63.61
2024-05-09T19:35:34.849Z,63.86
2024-05-09T19:38:02.265Z,64.41
2024-05-09T19:40:32.161Z,64.19
2024-05-09T19:43:02.356Z,64.24
2024-05-09T19:45:30.127Z,65.19
2024-05-09T19:47:57.360Z,64.10
2024-05-09T19:50:32.387Z,64.00
2024-05-09T19:53:07.343Z,63.92
2024-05-09T19:55:34.550Z,63.64
2024-05-09T19:58:07.228Z,63.96
2024-05-09T20:00:37.024Z,63.42
2024-05-09T20:03:06.414Z,63.94
2024-05-09T20:05:34.001Z,63.72
2024-05-09T20:08:01.032Z,63.57
2024-05-09T20:10:32.415Z,63.27
2024-05-09T20:13:01.543Z,63.68
2024-05-09T20:15:28.436Z,63.37
2024-05-09T20:17:55.835Z,63.95
2024-05-09T20:20:32.614Z,63.10
2024-05-09T20:23:05.265Z,62.83
2024-05-09T20:25:31.906Z,63.91
2024-05-09T20:27:58.826Z,63.49
2024-05-09T20:30:31.563Z,63.75
2024-05-09T20:33:00.563Z,64.04
2024-05-09T20:35:31.726Z,63.60
2024-05-09T20:37:58.943Z,64.43
2024-05-09T20:40:31.701Z,64.31
2024-05-09T20:43:02.262Z,63.87
2024-05-09T20:45:29.119Z,64.58
2024-05-09T20:47:56.183Z,64.16
2024-05-09T20:50:31.750Z,64.50
2024-05-09T20:53:04.025Z,65.11
2024-05-09T20:55:30.789Z,65.29
2024-05-09T20:57:57.825Z,65.31
2024-05-09T21:00:34.525Z,65.15
2024-05-09T21:03:07.004Z,64.76
2024-05-09T21:05:34.975Z,65.83
2024-05-09T21:08:02.303Z,66.10
2024-05-09T21:10:32.895Z,65.65
2024-05-09T21:13:02.397Z,66.42
2024-05-09T21:15:29.918Z,66.72
2024-05-09T21:17:56.713Z,66.79
2024-05-09T21:20:30.553Z,66.71
2024-05-09T21:22:59.056Z,66.85
2024-05-09T21:25:25.976Z,66.77
2024-05-09T21:27:52.954Z,66.57
2024-05-09T21:30:31.466Z,66.90
2024-05-09T21:33:07.647Z,66.88
2024-05-09T21:35:37.807Z,66.62
2024-05-09T21:38:04.959Z,66.64
2024-05-09T21:40:34.986Z,67.32
2024-05-09T21:43:04.251Z,67.18
2024-05-09T21:45:31.300Z,66.94
2024-05-09T21:47:58.383Z,67.11
2024-05-09T21:50:32.354Z,66.51
2024-05-09T21:53:05.986Z,66.70
2024-05-09T21:55:32.983Z,66.93
2024-05-09T21:57:59.858Z,67.13
2024-05-09T22:00:34.609Z,67.14
2024-05-09T22:03:05.214Z,66.87
2024-05-09T22:05:32.590Z,66.98
2024-05-09T22:07:59.854Z,67.50
2024-05-09T22:10:32.832Z,67.37
2024-05-09T22:13:02.334Z,67.10
2024-05-09T22:15:29.273Z,67.73
2024-05-09T22:17:57.568Z,67.85
2024-05-09T22:20:34.119Z,67.89
2024-05-09T22:23:04.745Z,67.72
2024-05-09T22:25:32.365Z,67.65
2024-05-09T22:28:00.701Z,67.83
2024-05-09T22:30:35.124Z,67.96
2024-05-09T22:33:06.443Z,67.96
2024-05-09T22:35:33.521Z,68.09
2024-05-09T22:38:00.379Z,68.32
2024-05-09T22:40:38.679Z,68.69
2024-05-09T22:43:13.606Z,68.66
2024-05-09T22:45:42.272Z,68.57
2024-05-09T22:48:09.638Z,68.66
2024-05-09T22:50:36.476Z,69.05
2024-05-09T22:53:03.268Z,68.74
2024-05-09T22:55:30.346Z,68.75
2024-05-09T22:57:57.263Z,69.45
2024-05-09T23:02:53.979Z,69.74
2024-05-09T23:05:20.864Z,69.49
2024-05-09T23:07:47.690Z,69.64
2024-05-09T23:10:21.239Z,69.53
2024-05-09T23:12:54.847Z,69.66
2024-05-09T23:15:21.667Z,69.92
2024-05-09T23:17:48.363Z,69.70
2024-05-09T23:20:21.481Z,69.93
2024-05-09T23:22:52.717Z,69.72
2024-05-09T23:25:19.556Z,70.06
2024-05-09T23:27:46.259Z,70.05
2024-05-09T23:30:21.709Z,70.34
2024-05-09T23:32:55.715Z,70.34
2024-05-09T23:35:22.735Z,70.47
2024-05-09T23:37:49.442Z,70.71
2024-05-09T23:40:19.023Z,70.62
2024-05-09T23:42:49.539Z,70.64
2024-05-09T23:45:16.351Z,70.45
2024-05-09T23:47:43.338Z,70.71
2024-05-09T23:50:16.772Z,70.38
2024-05-09T23:52:50.319Z,70.56
2024-05-09T23:55:17.415Z,70.62
2024-05-09T23:57:44.425Z,70.71
